Time;durP1;ratioP1;P1;durP2;ratioP2;P2;SDS_P1;SDS_P2;PMS_P1;PMS_P2;Temp;Humidity;BMP_temperature;BMP_pressure;BME280_temperature;BME280_humidity;BME280_pressure;Samples;Min_cycle;Max_cycle;Signal;HPM_P1;HPM_P2
2022/07/27 00:01:40;;;;;;;6.60;1.40;;;;;;;;;;5012220;28;20975;-79
2022/07/27 00:04:06;;;;;;;9.00;1.17;;;;;;;;;;5012092;28;20580;-79
2022/07/27 00:06:32;;;;;;;3.20;1.20;;;;;;;;;;5012154;28;20504;-80
2022/07/27 00:08:59;;;;;;;3.77;1.40;;;;;;;;;;5011869;28;20512;-79
2022/07/27 00:11:25;;;;;;;2.03;1.57;;;;;;;;;;5013474;28;20512;-79
2022/07/27 00:13:51;;;;;;;2.40;0.90;;;;;;;;;;5013336;28;20928;-79
2022/07/27 00:16:17;;;;;;;2.87;1.00;;;;;;;;;;5011650;28;20452;-80
2022/07/27 00:18:43;;;;;;;1.67;1.13;;;;;;;;;;5011075;28;20461;-79
2022/07/27 00:21:09;;;;;;;2.80;1.70;;;;;;;;;;5013151;28;20477;-79
2022/07/27 00:23:35;;;;;;;3.20;1.20;;;;;;;;;;5012148;28;20409;-79
2022/07/27 00:26:01;;;;;;;3.10;1.20;;;;;;;;;;5012052;28;20413;-79
2022/07/27 00:28:27;;;;;;;4.13;1.27;;;;;;;;;;5012647;28;20413;-79
2022/07/27 00:30:53;;;;;;;4.00;1.20;;;;;;;;;;5012966;28;21017;-79
2022/07/27 00:33:19;;;;;;;2.80;1.83;;;;;;;;;;5011750;28;20422;-79
2022/07/27 00:35:45;;;;;;;3.13;1.20;;;;;;;;;;5012839;28;20445;-79
2022/07/27 00:38:11;;;;;;;3.30;1.30;;;;;;;;;;5012651;28;20571;-79
2022/07/27 00:40:38;;;;;;;2.37;1.17;;;;;;;;;;5011741;28;20456;-80
2022/07/27 00:43:04;;;;;;;4.13;1.20;;;;;;;;;;5012883;28;20409;-79
2022/07/27 00:45:30;;;;;;;4.77;1.60;;;;;;;;;;5012668;28;20424;-79
2022/07/27 00:47:56;;;;;;;3.63;1.50;;;;;;;;;;5010748;28;20417;-79
2022/07/27 00:50:22;;;;;;;5.10;1.43;;;;;;;;;;5011141;28;20433;-79
2022/07/27 00:52:48;;;;;;;5.13;1.40;;;;;;;;;;5011457;28;20432;-79
2022/07/27 00:55:14;;;;;;;2.20;1.50;;;;;;;;;;5011617;28;20431;-79
2022/07/27 00:57:41;;;;;;;2.47;1.10;;;;;;;;;;5012620;28;20552;-82
2022/07/27 01:00:07;;;;;;;3.40;1.87;;;;;;;;;;5012956;28;20477;-80
2022/07/27 01:02:33;;;;;;;2.93;2.00;;;;;;;;;;5012166;28;20771;-80
2022/07/27 01:05:00;;;;;;;5.53;1.20;;;;;;;;;;5013216;28;20576;-80
2022/07/27 01:07:26;;;;;;;2.90;1.10;;;;;;;;;;5011502;28;20424;-79
2022/07/27 01:09:55;;;;;;;4.57;1.20;;;;;;;;;;5012773;28;20422;-81
2022/07/27 01:12:21;;;;;;;2.40;1.40;;;;;;;;;;5011960;28;20414;-80
2022/07/27 01:14:48;;;;;;;2.90;1.43;;;;;;;;;;5011778;28;20945;-82
2022/07/27 01:17:14;;;;;;;2.00;1.07;;;;;;;;;;5012772;28;20415;-80
2022/07/27 01:19:40;;;;;;;2.30;1.40;;;;;;;;;;5011537;28;20461;-80
2022/07/27 01:22:07;;;;;;;1.93;1.10;;;;;;;;;;5013090;28;20456;-79
2022/07/27 01:24:36;;;;;;;2.23;1.20;;;;;;;;;;5013287;28;20410;-80
2022/07/27 01:27:02;;;;;;;5.30;1.27;;;;;;;;;;5011422;28;20467;-81
2022/07/27 01:29:29;;;;;;;2.43;1.20;;;;;;;;;;5014465;28;20418;-80
2022/07/27 01:31:57;;;;;;;2.73;1.37;;;;;;;;;;5016738;28;20504;-79
2022/07/27 01:34:23;;;;;;;1.97;1.40;;;;;;;;;;5015640;28;20508;-80
2022/07/27 01:36:50;;;;;;;2.37;1.30;;;;;;;;;;5015134;28;20500;-79
2022/07/27 01:39:16;;;;;;;5.47;1.50;;;;;;;;;;5016698;28;20468;-80
2022/07/27 01:41:43;;;;;;;2.33;1.00;;;;;;;;;;5015912;28;20491;-80
2022/07/27 01:44:09;;;;;;;1.77;1.13;;;;;;;;;;5016706;28;20402;-81
2022/07/27 01:46:35;;;;;;;2.43;1.67;;;;;;;;;;5015661;28;20414;-82
2022/07/27 01:49:01;;;;;;;3.23;1.50;;;;;;;;;;5015500;28;20452;-81
2022/07/27 01:51:27;;;;;;;1.67;0.90;;;;;;;;;;5015888;28;20885;-80
2022/07/27 01:53:53;;;;;;;1.30;1.03;;;;;;;;;;5016584;28;20428;-80
2022/07/27 01:56:19;;;;;;;5.30;1.10;;;;;;;;;;5016922;28;20782;-80
2022/07/27 01:58:45;;;;;;;2.87;1.17;;;;;;;;;;5023515;28;20557;-85
2022/07/27 02:01:11;;;;;;;3.37;1.37;;;;;;;;;;5027677;28;20584;-80
2022/07/27 02:03:38;;;;;;;3.20;1.50;;;;;;;;;;5015640;28;20441;-81
2022/07/27 02:06:04;;;;;;;2.13;1.30;;;;;;;;;;5015823;28;20418;-80
2022/07/27 02:08:31;;;;;;;6.87;1.70;;;;;;;;;;5015086;28;20425;-81
2022/07/27 02:13:46;;;;;;;1.70;1.20;;;;;;;;;;5016795;28;20405;-81
2022/07/27 02:16:15;;;;;;;1.97;1.20;;;;;;;;;;5017035;28;20501;-80
2022/07/27 02:18:42;;;;;;;5.40;1.20;;;;;;;;;;5016105;28;20464;-81
2022/07/27 02:21:09;;;;;;;1.40;1.23;;;;;;;;;;5015911;28;20524;-81
2022/07/27 02:23:35;;;;;;;2.90;1.30;;;;;;;;;;5019288;28;20505;-79
2022/07/27 02:26:02;;;;;;;2.37;1.30;;;;;;;;;;5016277;28;20451;-81
2022/07/27 02:28:28;;;;;;;1.50;1.23;;;;;;;;;;5015485;28;20412;-81
2022/07/27 02:30:54;;;;;;;3.53;1.10;;;;;;;;;;5019949;28;20476;-81
2022/07/27 02:33:20;;;;;;;2.83;1.40;;;;;;;;;;5019176;28;20448;-81
2022/07/27 02:35:46;;;;;;;4.93;1.40;;;;;;;;;;5001284;28;20427;-80
2022/07/27 02:38:12;;;;;;;2.13;1.20;;;;;;;;;;5016189;28;20458;-81
2022/07/27 02:40:38;;;;;;;2.47;1.50;;;;;;;;;;5017119;28;20494;-82
2022/07/27 02:43:04;;;;;;;3.27;1.33;;;;;;;;;;5013831;28;20413;-80
2022/07/27 02:45:30;;;;;;;2.00;1.10;;;;;;;;;;5013612;28;20420;-81
2022/07/27 02:47:56;;;;;;;1.50;1.10;;;;;;;;;;5012927;28;20913;-80
2022/07/27 02:50:22;;;;;;;2.30;1.30;;;;;;;;;;5013485;28;20524;-82
2022/07/27 02:52:48;;;;;;;1.93;1.20;;;;;;;;;;5013387;28;20436;-80
2022/07/27 02:55:14;;;;;;;3.00;1.10;;;;;;;;;;5014786;28;20460;-81
2022/07/27 02:57:40;;;;;;;14.13;1.57;;;;;;;;;;5014333;28;20771;-80
2022/07/27 03:00:10;;;;;;;1.60;1.43;;;;;;;;;;5013104;28;21001;-80
2022/07/27 03:02:36;;;;;;;2.90;1.43;;;;;;;;;;5013004;28;20422;-79
2022/07/27 03:05:03;;;;;;;1.63;1.20;;;;;;;;;;5014685;28;20516;-80
2022/07/27 03:07:29;;;;;;;1.57;1.30;;;;;;;;;;5012548;28;20419;-81
2022/07/27 03:09:55;;;;;;;1.43;1.17;;;;;;;;;;5013196;28;20410;-81
2022/07/27 03:12:21;;;;;;;1.87;1.00;;;;;;;;;;5013079;28;20497;-82
2022/07/27 03:14:47;;;;;;;3.77;2.00;;;;;;;;;;5014259;28;20442;-80
2022/07/27 03:17:13;;;;;;;2.83;1.37;;;;;;;;;;5012404;28;20409;-81
2022/07/27 03:19:39;;;;;;;2.87;1.50;;;;;;;;;;5013284;28;20549;-79
2022/07/27 03:22:05;;;;;;;1.57;1.03;;;;;;;;;;5014190;28;20451;-79
2022/07/27 03:24:31;;;;;;;3.70;1.87;;;;;;;;;;5012975;28;20417;-80
2022/07/27 03:26:57;;;;;;;2.23;1.37;;;;;;;;;;5013174;28;21124;-79
2022/07/27 03:29:23;;;;;;;1.20;1.10;;;;;;;;;;5014585;28;20461;-79
2022/07/27 03:31:49;;;;;;;2.10;1.40;;;;;;;;;;5013491;28;20469;-80
2022/07/27 03:34:16;;;;;;;3.60;1.27;;;;;;;;;;5013561;28;20414;-80
2022/07/27 03:36:42;;;;;;;2.80;1.30;;;;;;;;;;5013362;28;20413;-81
2022/07/27 03:39:08;;;;;;;2.20;1.20;;;;;;;;;;5013793;28;20489;-82
2022/07/27 03:41:35;;;;;;;1.70;1.17;;;;;;;;;;5014347;28;20436;-79
2022/07/27 03:44:01;;;;;;;2.80;1.30;;;;;;;;;;5013571;28;20804;-81
2022/07/27 03:46:27;;;;;;;2.20;1.20;;;;;;;;;;5014877;28;20496;-80
2022/07/27 03:48:53;;;;;;;1.93;1.37;;;;;;;;;;5013117;28;20422;-82
2022/07/27 03:51:19;;;;;;;2.60;1.20;;;;;;;;;;5013024;28;20441;-81
2022/07/27 03:53:46;;;;;;;3.37;1.20;;;;;;;;;;5014821;28;20419;-80
2022/07/27 03:56:12;;;;;;;3.30;1.10;;;;;;;;;;5015742;28;20414;-80
2022/07/27 03:58:38;;;;;;;2.87;1.30;;;;;;;;;;5014938;28;20539;-80
2022/07/27 04:01:04;;;;;;;1.90;1.30;;;;;;;;;;5014823;28;20429;-81
2022/07/27 04:03:30;;;;;;;2.40;1.17;;;;;;;;;;5016683;28;20471;-80
2022/07/27 04:05:56;;;;;;;2.87;1.47;;;;;;;;;;5021516;28;20463;-81
2022/07/27 04:08:22;;;;;;;2.73;1.60;;;;;;;;;;5017067;28;20828;-80
2022/07/27 04:10:48;;;;;;;2.10;1.40;;;;;;;;;;5012130;28;20957;-79
2022/07/27 04:13:14;;;;;;;2.13;1.30;;;;;;;;;;5012163;28;20448;-79
2022/07/27 04:15:40;;;;;;;4.40;1.33;;;;;;;;;;5012291;28;20786;-79
2022/07/27 04:18:06;;;;;;;5.60;1.23;;;;;;;;;;5012388;28;20416;-79
2022/07/27 04:20:33;;;;;;;1.40;1.20;;;;;;;;;;5011673;28;20442;-80
2022/07/27 04:22:59;;;;;;;2.50;1.30;;;;;;;;;;5011953;28;20429;-80
2022/07/27 04:25:25;;;;;;;2.63;1.50;;;;;;;;;;5012906;28;20921;-79
2022/07/27 04:27:53;;;;;;;5.70;1.70;;;;;;;;;;5012358;28;20906;-80
2022/07/27 04:30:19;;;;;;;2.17;1.40;;;;;;;;;;5011854;28;20444;-79
2022/07/27 04:32:46;;;;;;;5.37;1.53;;;;;;;;;;5013006;28;20735;-79
2022/07/27 04:35:12;;;;;;;7.63;1.60;;;;;;;;;;5011611;28;20474;-80
2022/07/27 04:37:38;;;;;;;2.63;1.97;;;;;;;;;;5011326;28;20422;-80
2022/07/27 04:40:06;;;;;;;2.83;1.50;;;;;;;;;;5011711;28;20500;-80
2022/07/27 04:42:32;;;;;;;2.03;1.53;;;;;;;;;;5011888;28;20452;-79
2022/07/27 04:44:58;;;;;;;2.13;1.40;;;;;;;;;;5011962;28;20442;-82
2022/07/27 04:47:25;;;;;;;2.17;1.40;;;;;;;;;;5011135;28;20410;-79
2022/07/27 04:49:51;;;;;;;2.43;1.63;;;;;;;;;;5011603;28;20413;-81
2022/07/27 04:52:17;;;;;;;2.90;1.77;;;;;;;;;;5011452;28;20933;-79
2022/07/27 04:54:43;;;;;;;2.80;1.47;;;;;;;;;;5011391;28;20441;-80
2022/07/27 04:57:09;;;;;;;1.97;1.30;;;;;;;;;;5010594;28;20425;-79
2022/07/27 04:59:35;;;;;;;2.10;1.50;;;;;;;;;;5012432;28;20797;-79
2022/07/27 05:02:01;;;;;;;1.93;1.63;;;;;;;;;;5010897;28;20541;-80
2022/07/27 05:04:27;;;;;;;4.27;1.30;;;;;;;;;;5014018;28;20426;-80
2022/07/27 05:06:53;;;;;;;2.70;1.47;;;;;;;;;;5015137;28;20497;-79
2022/07/27 05:09:22;;;;;;;2.03;1.40;;;;;;;;;;5017542;28;20473;-80
2022/07/27 05:11:48;;;;;;;3.83;1.67;;;;;;;;;;5016765;28;20447;-80
2022/07/27 05:14:14;;;;;;;2.33;1.60;;;;;;;;;;5017567;28;20461;-80
2022/07/27 05:16:40;;;;;;;3.43;2.07;;;;;;;;;;5016290;28;20422;-80
2022/07/27 05:19:06;;;;;;;2.70;1.47;;;;;;;;;;5016901;28;20956;-79
2022/07/27 05:21:32;;;;;;;2.63;1.67;;;;;;;;;;5018768;28;20898;-79
2022/07/27 05:23:58;;;;;;;2.20;1.80;;;;;;;;;;5033848;28;20420;-79
2022/07/27 05:26:25;;;;;;;2.80;1.50;;;;;;;;;;5033996;28;20428;-80
2022/07/27 05:28:52;;;;;;;2.13;1.50;;;;;;;;;;5034092;28;20831;-80
2022/07/27 05:31:18;;;;;;;2.77;1.67;;;;;;;;;;5036195;28;20794;-81
2022/07/27 05:33:44;;;;;;;3.50;1.60;;;;;;;;;;5034586;28;20416;-82
2022/07/27 05:36:10;;;;;;;2.23;1.50;;;;;;;;;;5036778;28;20424;-82
2022/07/27 05:38:40;;;;;;;3.23;1.20;;;;;;;;;;5035376;28;20464;-80
2022/07/27 05:41:07;;;;;;;4.17;1.53;;;;;;;;;;5036073;28;20437;-80
2022/07/27 05:43:33;;;;;;;4.43;1.30;;;;;;;;;;5019090;28;20423;-82
2022/07/27 05:45:59;;;;;;;2.17;1.33;;;;;;;;;;5035448;28;20412;-80
2022/07/27 05:48:25;;;;;;;2.70;1.50;;;;;;;;;;5036336;28;20480;-80
2022/07/27 05:50:51;;;;;;;4.23;1.20;;;;;;;;;;5035085;28;20441;-80
2022/07/27 05:53:17;;;;;;;2.47;1.50;;;;;;;;;;5037229;28;20499;-80
2022/07/27 05:55:44;;;;;;;3.20;1.23;;;;;;;;;;5040339;28;20821;-81
2022/07/27 05:58:10;;;;;;;6.20;1.30;;;;;;;;;;5043818;28;20435;-81
2022/07/27 06:00:36;;;;;;;6.07;1.50;;;;;;;;;;5024796;28;20840;-82
2022/07/27 06:03:02;;;;;;;3.40;1.60;;;;;;;;;;5026117;28;20414;-81
2022/07/27 06:05:28;;;;;;;2.57;1.47;;;;;;;;;;5026945;28;20439;-83
2022/07/27 06:08:05;;;;;;;3.73;1.43;;;;;;;;;;5019171;28;20405;-81
2022/07/27 06:10:34;;;;;;;7.73;1.50;;;;;;;;;;5020158;28;20438;-82
2022/07/27 06:13:04;;;;;;;4.47;1.27;;;;;;;;;;5027479;28;20433;-83
2022/07/27 06:15:30;;;;;;;2.07;1.47;;;;;;;;;;5022622;28;20421;-80
2022/07/27 06:17:56;;;;;;;2.50;1.30;;;;;;;;;;5015597;28;20409;-80
2022/07/27 06:20:23;;;;;;;4.20;1.10;;;;;;;;;;5014221;28;20476;-80
2022/07/27 06:22:53;;;;;;;2.57;1.47;;;;;;;;;;5014528;28;20437;-80
2022/07/27 06:25:20;;;;;;;3.23;1.20;;;;;;;;;;5013933;28;20417;-80
2022/07/27 06:27:46;;;;;;;5.90;1.77;;;;;;;;;;5013003;28;20496;-81
2022/07/27 06:30:13;;;;;;;3.63;1.50;;;;;;;;;;5013352;28;20469;-80
2022/07/27 06:32:39;;;;;;;3.70;1.40;;;;;;;;;;5014965;28;20424;-79
2022/07/27 06:35:05;;;;;;;2.27;1.43;;;;;;;;;;5013332;28;20413;-79
2022/07/27 06:37:32;;;;;;;4.83;1.30;;;;;;;;;;5012660;28;20440;-79
2022/07/27 06:39:59;;;;;;;2.00;1.00;;;;;;;;;;5014760;28;20449;-79
2022/07/27 06:42:26;;;;;;;2.33;1.20;;;;;;;;;;5013129;28;20452;-79
2022/07/27 06:44:52;;;;;;;4.20;1.20;;;;;;;;;;5014392;28;20444;-79
2022/07/27 06:47:18;;;;;;;3.63;0.90;;;;;;;;;;5012512;28;20513;-79
2022/07/27 06:49:44;;;;;;;2.40;1.07;;;;;;;;;;5012679;28;20409;-80
2022/07/27 06:52:10;;;;;;;2.90;1.20;;;;;;;;;;5012759;28;20457;-79
2022/07/27 06:54:36;;;;;;;2.50;1.13;;;;;;;;;;5014386;28;20953;-82
2022/07/27 06:57:02;;;;;;;1.20;1.00;;;;;;;;;;5013637;28;20408;-79
2022/07/27 06:59:30;;;;;;;1.20;1.00;;;;;;;;;;5013836;28;20449;-79
2022/07/27 07:01:56;;;;;;;2.63;1.47;;;;;;;;;;5013144;28;20949;-80
2022/07/27 07:04:22;;;;;;;2.43;1.20;;;;;;;;;;5012480;28;20406;-79
2022/07/27 07:06:49;;;;;;;4.83;1.33;;;;;;;;;;5013301;28;20418;-79
2022/07/27 07:09:15;;;;;;;3.40;1.13;;;;;;;;;;5014066;28;20543;-82
2022/07/27 07:11:41;;;;;;;2.60;1.00;;;;;;;;;;5012362;28;20437;-81
2022/07/27 07:14:07;;;;;;;1.10;0.80;;;;;;;;;;5014060;28;20491;-80
2022/07/27 07:16:33;;;;;;;2.50;1.20;;;;;;;;;;5012047;28;21112;-79
2022/07/27 07:18:59;;;;;;;2.50;1.50;;;;;;;;;;5011849;28;20465;-79
2022/07/27 07:21:25;;;;;;;5.03;1.00;;;;;;;;;;5011727;28;21028;-79
2022/07/27 07:23:51;;;;;;;1.87;0.90;;;;;;;;;;5013262;28;20444;-78
2022/07/27 07:26:17;;;;;;;3.47;1.20;;;;;;;;;;5012428;28;20421;-79
2022/07/27 07:28:43;;;;;;;1.70;1.10;;;;;;;;;;5012591;28;20417;-79
2022/07/27 07:31:09;;;;;;;5.90;1.30;;;;;;;;;;5012022;28;20437;-79
2022/07/27 07:33:35;;;;;;;1.50;0.90;;;;;;;;;;5013169;28;20417;-79
2022/07/27 07:36:03;;;;;;;6.00;0.90;;;;;;;;;;5011938;28;20426;-79
2022/07/27 07:38:29;;;;;;;2.40;1.00;;;;;;;;;;5010349;28;20487;-79
2022/07/27 07:40:56;;;;;;;4.40;1.00;;;;;;;;;;5010987;28;20449;-80
2022/07/27 07:43:22;;;;;;;3.43;1.00;;;;;;;;;;5011722;28;20425;-79
2022/07/27 07:45:48;;;;;;;3.27;1.07;;;;;;;;;;5011534;28;20430;-79
2022/07/27 07:48:14;;;;;;;3.57;1.43;;;;;;;;;;5012282;28;20463;-79
2022/07/27 07:50:40;;;;;;;4.70;1.50;;;;;;;;;;5011513;28;20913;-79
2022/07/27 07:53:06;;;;;;;1.77;1.07;;;;;;;;;;5012932;28;20471;-79
2022/07/27 07:55:32;;;;;;;1.87;1.13;;;;;;;;;;5012694;28;20496;-80
2022/07/27 07:58:00;;;;;;;7.50;1.43;;;;;;;;;;5010698;28;20770;-79
2022/07/27 08:00:26;;;;;;;5.63;2.37;;;;;;;;;;5011309;28;20571;-79
2022/07/27 08:02:53;;;;;;;1.33;0.90;;;;;;;;;;5011032;28;20426;-79
2022/07/27 08:05:19;;;;;;;3.10;1.20;;;;;;;;;;5012761;28;20418;-81
2022/07/27 08:07:46;;;;;;;3.23;1.37;;;;;;;;;;5010555;28;20422;-79
2022/07/27 08:10:13;;;;;;;2.50;1.23;;;;;;;;;;5011431;28;20877;-80
2022/07/27 08:12:40;;;;;;;2.33;1.40;;;;;;;;;;5011353;28;20425;-80
2022/07/27 08:15:07;;;;;;;3.33;1.00;;;;;;;;;;5012935;28;20425;-79
2022/07/27 08:17:33;;;;;;;4.30;1.27;;;;;;;;;;4994409;28;20434;-79
2022/07/27 08:19:59;;;;;;;1.90;1.50;;;;;;;;;;5011942;28;20855;-79
2022/07/27 08:22:25;;;;;;;1.90;1.03;;;;;;;;;;5011146;28;20973;-79
2022/07/27 08:24:51;;;;;;;1.70;1.20;;;;;;;;;;5011152;28;20761;-79
2022/07/27 08:27:17;;;;;;;7.00;1.20;;;;;;;;;;5010838;28;20414;-79
2022/07/27 08:29:43;;;;;;;1.97;1.47;;;;;;;;;;5012725;28;20492;-79
2022/07/27 08:32:10;;;;;;;1.40;1.30;;;;;;;;;;5011273;28;20413;-79
2022/07/27 08:34:36;;;;;;;4.93;1.80;;;;;;;;;;5012760;28;20410;-80
2022/07/27 08:37:02;;;;;;;1.40;1.27;;;;;;;;;;5012742;28;20428;-80
2022/07/27 08:39:28;;;;;;;2.80;1.20;;;;;;;;;;5014344;28;20464;-79
2022/07/27 08:41:56;;;;;;;1.87;1.00;;;;;;;;;;5015657;28;20509;-80
2022/07/27 08:44:28;;;;;;;5.83;1.30;;;;;;;;;;5016492;28;20999;-81
2022/07/27 08:46:55;;;;;;;1.40;1.10;;;;;;;;;;5014420;28;20410;-79
2022/07/27 08:49:22;;;;;;;2.10;1.20;;;;;;;;;;5016324;28;20405;-80
2022/07/27 08:51:48;;;;;;;1.30;1.20;;;;;;;;;;5016387;28;20976;-79
2022/07/27 08:54:14;;;;;;;2.33;1.00;;;;;;;;;;5015480;28;20421;-79
2022/07/27 08:56:41;;;;;;;1.50;1.03;;;;;;;;;;5014418;28;20443;-82
2022/07/27 08:59:07;;;;;;;3.50;1.17;;;;;;;;;;5014835;28;20484;-81
2022/07/27 09:01:35;;;;;;;2.40;1.00;;;;;;;;;;5016873;28;20480;-79
2022/07/27 09:04:01;;;;;;;2.70;1.33;;;;;;;;;;5015316;28;20475;-81
2022/07/27 09:06:54;;;;;;;2.23;1.20;;;;;;;;;;5016712;28;20417;-80
2022/07/27 09:09:20;;;;;;;1.70;1.17;;;;;;;;;;5013413;28;20429;-81
2022/07/27 09:12:02;;;;;;;1.50;1.10;;;;;;;;;;5015093;28;20448;-81
2022/07/27 09:14:32;;;;;;;3.40;1.20;;;;;;;;;;5014854;28;20436;-79
2022/07/27 09:16:58;;;;;;;4.53;1.30;;;;;;;;;;5015592;28;20401;-82
2022/07/27 09:19:24;;;;;;;1.60;1.23;;;;;;;;;;5014925;28;20822;-79
2022/07/27 09:21:50;;;;;;;2.80;1.27;;;;;;;;;;5015377;28;20765;-80
2022/07/27 09:24:17;;;;;;;2.07;1.10;;;;;;;;;;5016489;28;20548;-80
2022/07/27 09:26:43;;;;;;;2.17;1.30;;;;;;;;;;5015191;28;20409;-81
2022/07/27 09:29:11;;;;;;;3.10;1.37;;;;;;;;;;5015248;28;20413;-80
2022/07/27 09:31:43;;;;;;;2.43;1.07;;;;;;;;;;5016553;28;20448;-81
2022/07/27 09:34:10;;;;;;;4.33;1.10;;;;;;;;;;5015688;28;20429;-82
2022/07/27 09:36:49;;;;;;;2.23;1.00;;;;;;;;;;5016797;28;20906;-81
2022/07/27 09:39:17;;;;;;;2.60;1.27;;;;;;;;;;5014517;28;20461;-81
2022/07/27 09:41:49;;;;;;;2.37;1.20;;;;;;;;;;5015205;28;20433;-82
2022/07/27 09:44:16;;;;;;;2.60;1.20;;;;;;;;;;5015574;28;20419;-81
2022/07/27 09:46:43;;;;;;;2.03;1.00;;;;;;;;;;5013942;28;20418;-82
2022/07/27 09:49:27;;;;;;;1.93;1.20;;;;;;;;;;5017042;28;20544;-82
2022/07/27 09:51:54;;;;;;;2.87;1.30;;;;;;;;;;5016585;28;20948;-80
2022/07/27 09:54:20;;;;;;;1.77;1.20;;;;;;;;;;5014434;28;20414;-80
2022/07/27 09:56:57;;;;;;;5.00;1.63;;;;;;;;;;5013541;28;20448;-81
2022/07/27 09:59:23;;;;;;;2.33;1.40;;;;;;;;;;5014337;28;20449;-81
2022/07/27 10:01:49;;;;;;;4.00;1.20;;;;;;;;;;5015575;28;20430;-83
2022/07/27 10:04:15;;;;;;;2.17;1.20;;;;;;;;;;5015634;28;20417;-81
2022/07/27 10:06:41;;;;;;;1.60;1.50;;;;;;;;;;5015418;28;20413;-80
2022/07/27 10:09:11;;;;;;;3.63;1.00;;;;;;;;;;5014661;28;20480;-80
2022/07/27 10:11:38;;;;;;;1.70;1.17;;;;;;;;;;5015440;28;20969;-80
2022/07/27 10:14:04;;;;;;;1.70;1.10;;;;;;;;;;5014712;28;20425;-82
2022/07/27 10:16:32;;;;;;;3.87;1.40;;;;;;;;;;5016036;28;20430;-79
2022/07/27 10:19:02;;;;;;;2.57;1.10;;;;;;;;;;4997093;28;20488;-79
2022/07/27 10:21:28;;;;;;;2.50;1.30;;;;;;;;;;5014669;28;20464;-79
2022/07/27 10:23:56;;;;;;;5.23;1.30;;;;;;;;;;5013635;28;20421;-79
2022/07/27 10:26:25;;;;;;;2.50;1.33;;;;;;;;;;5014719;28;20398;-80
2022/07/27 10:29:00;;;;;;;4.40;1.60;;;;;;;;;;5013219;28;20434;-82
2022/07/27 10:31:28;;;;;;;5.47;1.30;;;;;;;;;;5014957;28;20442;-82
2022/07/27 10:33:56;;;;;;;4.97;1.83;;;;;;;;;;5016562;28;20413;-83
2022/07/27 10:36:25;;;;;;;1.60;1.23;;;;;;;;;;5015469;28;20449;-82
2022/07/27 10:38:52;;;;;;;4.40;2.30;;;;;;;;;;5015185;28;20465;-82
2022/07/27 10:41:31;;;;;;;3.33;1.47;;;;;;;;;;5017352;28;20429;-83
2022/07/27 10:44:16;;;;;;;4.07;1.67;;;;;;;;;;5017220;28;20394;-82
2022/07/27 10:46:45;;;;;;;3.93;1.87;;;;;;;;;;5017952;28;20888;-81
2022/07/27 10:49:22;;;;;;;1.80;1.37;;;;;;;;;;5017443;28;20914;-82
2022/07/27 10:51:48;;;;;;;2.33;1.40;;;;;;;;;;5018218;28;20433;-80
2022/07/27 10:54:31;;;;;;;3.77;1.50;;;;;;;;;;5017210;28;20424;-82
2022/07/27 10:56:58;;;;;;;4.70;1.30;;;;;;;;;;5015698;28;20424;-81
2022/07/27 10:59:40;;;;;;;3.97;1.27;;;;;;;;;;5013709;28;20989;-79
2022/07/27 11:02:07;;;;;;;2.70;1.20;;;;;;;;;;5013422;28;20536;-79
2022/07/27 11:04:34;;;;;;;5.67;1.50;;;;;;;;;;5014934;28;20500;-79
2022/07/27 11:07:01;;;;;;;2.30;1.30;;;;;;;;;;5013532;28;20422;-79
2022/07/27 11:09:36;;;;;;;3.37;1.30;;;;;;;;;;5015763;28;20413;-81
2022/07/27 11:12:04;;;;;;;2.80;1.50;;;;;;;;;;5013925;28;20465;-79
2022/07/27 11:14:46;;;;;;;1.40;1.23;;;;;;;;;;5015861;28;20405;-80
2022/07/27 11:17:12;;;;;;;1.83;1.23;;;;;;;;;;5016023;28;20425;-80
2022/07/27 11:19:39;;;;;;;1.73;1.50;;;;;;;;;;5015428;28;20462;-81
2022/07/27 11:22:05;;;;;;;3.37;1.40;;;;;;;;;;5015507;28;20508;-79
2022/07/27 11:24:33;;;;;;;3.83;1.40;;;;;;;;;;5015173;28;20443;-79
2022/07/27 11:27:00;;;;;;;1.70;1.50;;;;;;;;;;5012199;28;20429;-80
2022/07/27 11:29:26;;;;;;;2.67;1.63;;;;;;;;;;5013872;28;20504;-82
2022/07/27 11:31:54;;;;;;;2.47;1.40;;;;;;;;;;5012620;28;20429;-80
2022/07/27 11:34:43;;;;;;;2.03;1.23;;;;;;;;;;5014396;28;20477;-82
2022/07/27 11:37:13;;;;;;;1.60;1.30;;;;;;;;;;4974873;28;20430;-80
2022/07/27 11:39:39;;;;;;;1.83;1.50;;;;;;;;;;4975306;28;20470;-79
2022/07/27 11:42:05;;;;;;;6.40;1.70;;;;;;;;;;4974824;28;20470;-80
2022/07/27 11:44:31;;;;;;;4.27;1.40;;;;;;;;;;4975907;28;20410;-80
2022/07/27 11:46:57;;;;;;;3.10;1.40;;;;;;;;;;4976450;28;20412;-80
2022/07/27 11:49:27;;;;;;;2.93;1.07;;;;;;;;;;4992972;28;20414;-80
2022/07/27 11:51:54;;;;;;;2.50;1.20;;;;;;;;;;4975953;28;20438;-80
2022/07/27 11:54:20;;;;;;;2.20;1.23;;;;;;;;;;4975264;28;20477;-81
2022/07/27 11:56:48;;;;;;;2.60;1.13;;;;;;;;;;4990476;28;20422;-81
2022/07/27 11:59:16;;;;;;;1.70;1.10;;;;;;;;;;4974822;28;21060;-80
2022/07/27 12:01:44;;;;;;;6.70;1.20;;;;;;;;;;4990773;28;20517;-80
2022/07/27 12:04:11;;;;;;;3.00;1.10;;;;;;;;;;4991021;28;20753;-80
2022/07/27 12:06:38;;;;;;;2.33;1.23;;;;;;;;;;4991035;28;20410;-80
2022/07/27 12:09:05;;;;;;;1.67;1.00;;;;;;;;;;5006698;28;20412;-80
2022/07/27 12:11:45;;;;;;;1.43;1.10;;;;;;;;;;5013635;28;20426;-82
2022/07/27 12:14:15;;;;;;;1.60;1.10;;;;;;;;;;5014566;28;20410;-81
2022/07/27 12:16:41;;;;;;;1.20;0.90;;;;;;;;;;5013124;28;20496;-83
2022/07/27 12:19:07;;;;;;;1.77;1.10;;;;;;;;;;5012207;28;20453;-81
2022/07/27 12:21:33;;;;;;;2.67;1.17;;;;;;;;;;5014581;28;20445;-81
2022/07/27 12:23:59;;;;;;;1.70;1.40;;;;;;;;;;5015040;28;20500;-80
2022/07/27 12:26:25;;;;;;;1.17;1.07;;;;;;;;;;5012083;28;20414;-81
2022/07/27 12:29:04;;;;;;;2.20;1.00;;;;;;;;;;5012261;28;20920;-80
2022/07/27 12:31:31;;;;;;;3.80;1.20;;;;;;;;;;5014316;28;20480;-81
2022/07/27 12:33:58;;;;;;;4.77;1.10;;;;;;;;;;5014317;28;20762;-82
2022/07/27 12:36:30;;;;;;;1.20;1.00;;;;;;;;;;5014148;28;20418;-83
2022/07/27 12:38:57;;;;;;;1.57;1.10;;;;;;;;;;5018659;28;20472;-81
2022/07/27 12:41:34;;;;;;;1.33;1.10;;;;;;;;;;5019435;28;20953;-80
2022/07/27 12:44:18;;;;;;;1.10;0.90;;;;;;;;;;5012707;28;20392;-80
2022/07/27 12:46:53;;;;;;;1.20;1.10;;;;;;;;;;5011506;28;20802;-81
2022/07/27 12:49:23;;;;;;;1.37;1.20;;;;;;;;;;5011748;28;20409;-80
2022/07/27 12:51:50;;;;;;;2.70;1.10;;;;;;;;;;5011640;28;20495;-79
2022/07/27 12:54:16;;;;;;;1.90;1.10;;;;;;;;;;5011779;28;20421;-80
2022/07/27 12:56:48;;;;;;;2.00;1.10;;;;;;;;;;5012940;28;20464;-79
2022/07/27 12:59:16;;;;;;;1.67;0.97;;;;;;;;;;5013250;28;20467;-80
2022/07/27 13:01:42;;;;;;;2.80;1.10;;;;;;;;;;5011836;28;20438;-80
2022/07/27 13:04:08;;;;;;;6.40;1.70;;;;;;;;;;5012339;28;20433;-79
2022/07/27 13:06:34;;;;;;;3.90;1.40;;;;;;;;;;5011996;28;20408;-80
2022/07/27 13:09:00;;;;;;;3.20;1.30;;;;;;;;;;5011822;28;20422;-80
2022/07/27 13:11:26;;;;;;;2.43;1.33;;;;;;;;;;5013759;28;20803;-81
2022/07/27 13:13:52;;;;;;;2.80;1.20;;;;;;;;;;5015192;28;20514;-79
2022/07/27 13:16:18;;;;;;;1.97;1.13;;;;;;;;;;5014008;28;20424;-80
2022/07/27 13:18:44;;;;;;;1.50;1.40;;;;;;;;;;5012661;28;20452;-80
2022/07/27 13:21:10;;;;;;;2.47;1.30;;;;;;;;;;5012940;28;20445;-80
2022/07/27 13:23:36;;;;;;;2.70;1.10;;;;;;;;;;5011653;28;20421;-81
2022/07/27 13:26:02;;;;;;;1.80;1.13;;;;;;;;;;5015240;28;20464;-80
2022/07/27 13:28:28;;;;;;;3.70;1.10;;;;;;;;;;5014469;28;20417;-81
2022/07/27 13:30:55;;;;;;;2.97;1.13;;;;;;;;;;5014649;28;20483;-80
2022/07/27 13:33:21;;;;;;;9.33;1.20;;;;;;;;;;5016597;28;20492;-80
2022/07/27 13:35:47;;;;;;;2.00;1.13;;;;;;;;;;5015447;28;20417;-79
2022/07/27 13:38:14;;;;;;;2.17;1.50;;;;;;;;;;5016150;28;20420;-81
2022/07/27 13:40:40;;;;;;;3.63;1.10;;;;;;;;;;5017235;28;20425;-80
2022/07/27 13:43:11;;;;;;;3.10;1.20;;;;;;;;;;5020258;28;20417;-80
2022/07/27 13:45:37;;;;;;;1.63;1.10;;;;;;;;;;5020431;28;20410;-82
2022/07/27 13:48:03;;;;;;;2.43;1.20;;;;;;;;;;5018112;28;20493;-81
2022/07/27 13:50:29;;;;;;;3.73;1.40;;;;;;;;;;5016018;28;20798;-79
2022/07/27 13:52:55;;;;;;;4.63;1.43;;;;;;;;;;5015295;28;20780;-80
2022/07/27 13:55:21;;;;;;;3.70;1.43;;;;;;;;;;5014984;28;20505;-80
2022/07/27 13:57:47;;;;;;;3.43;1.27;;;;;;;;;;5015627;28;20421;-80
2022/07/27 14:00:14;;;;;;;4.23;1.30;;;;;;;;;;5014411;28;20461;-80
2022/07/27 14:02:40;;;;;;;1.43;1.10;;;;;;;;;;5014253;28;20413;-80
2022/07/27 14:05:07;;;;;;;2.07;1.40;;;;;;;;;;5014470;28;20906;-80
2022/07/27 14:07:33;;;;;;;2.57;1.30;;;;;;;;;;5014103;28;20445;-80
2022/07/27 14:12:45;;;;;;;7.83;1.30;;;;;;;;;;5016052;28;20409;-79
2022/07/27 14:15:11;;;;;;;2.10;1.13;;;;;;;;;;5014817;28;20444;-79
2022/07/27 14:17:37;;;;;;;2.80;1.30;;;;;;;;;;5013720;28;20484;-80
2022/07/27 14:20:04;;;;;;;2.83;1.30;;;;;;;;;;4997926;28;20966;-80
2022/07/27 14:22:30;;;;;;;2.30;1.40;;;;;;;;;;5015596;28;20464;-80
2022/07/27 14:24:56;;;;;;;1.73;1.10;;;;;;;;;;5014478;28;20410;-80
2022/07/27 14:27:22;;;;;;;2.13;1.50;;;;;;;;;;5001918;28;20427;-81
2022/07/27 14:29:48;;;;;;;2.53;1.77;;;;;;;;;;4995898;28;20398;-81
2022/07/27 14:32:14;;;;;;;6.40;1.30;;;;;;;;;;4998899;28;20421;-79
2022/07/27 14:34:40;;;;;;;4.50;2.23;;;;;;;;;;5007309;28;20417;-80
2022/07/27 14:37:06;;;;;;;1.33;0.90;;;;;;;;;;5013236;28;20489;-79
2022/07/27 14:39:32;;;;;;;2.80;1.20;;;;;;;;;;5014286;28;20481;-82
2022/07/27 14:41:58;;;;;;;5.03;1.23;;;;;;;;;;5016610;28;20437;-79
2022/07/27 14:44:24;;;;;;;2.17;1.20;;;;;;;;;;4996087;28;20449;-81
2022/07/27 14:46:50;;;;;;;1.80;1.20;;;;;;;;;;4995396;28;20434;-82
2022/07/27 14:49:20;;;;;;;2.20;1.23;;;;;;;;;;5006829;28;20964;-83